This is the latest recevied weather packets stored in our database for station/object JM1YTT-13. If no packets are shown the sender has not sent any weather packets the latest 10 day(s).
| Time | Temp. | Humidity | Pressure | Rain* | Wind** | Luminosity | Snow |
|---|---|---|---|---|---|---|---|
| 1788160363 | 81° F | 75% | 759.3 mmHg | 0 in | - | - | - |
| 1788158563 | 82° F | 74% | 759.1 mmHg | 0 in | - | - | - |
| 1788156763 | 83° F | 72% | 759.1 mmHg | 0 in | - | - | - |
| 1788154963 | 85° F | 69% | 759.1 mmHg | 0 in | - | - | - |
| 1788153163 | 85° F | 70% | 759.1 mmHg | 0 in | - | - | - |
| 1788151363 | 84° F | 72% | 759.1 mmHg | 0 in | - | - | - |
| 1788149563 | 84° F | 73% | 759.1 mmHg | 0 in | - | - | - |
| 1788147763 | 83° F | 74% | 759.1 mmHg | 0 in | - | - | - |
| 1788145963 | 81° F | 78% | 759.2 mmHg | 0 in | - | - | - |
| 1788144163 | 79° F | 81% | 759.3 mmHg | 0 in | - | - | - |
| 1788142363 | 79° F | 80% | 759.4 mmHg | 0 in | - | - | - |
| 1788140563 | 80° F | 79% | 759.3 mmHg | 0 in | - | - | - |
| 1788138763 | 79° F | 81% | 759.1 mmHg | 0 in | - | - | - |
| 1788136963 | 77° F | 83% | 758.9 mmHg | 0 in | - | - | - |
| 1788135163 | 76° F | 85% | 759 mmHg | 0 in | - | - | - |
| 1788133363 | 74° F | 89% | 758.9 mmHg | 0 in | - | - | - |
| 1788131563 | 71° F | 95% | 757.2 mmHg | 0 in | - | - | - |
| 1788129763 | 71° F | 95% | 757.2 mmHg | 0 in | - | - | - |
| 1788127963 | 71° F | 95% | 757.2 mmHg | 0 in | - | - | - |
| 1788126163 | 71° F | 95% | 757.2 mmHg | 0 in | - | - | - |
| 1788124363 | 71° F | 95% | 757.2 mmHg | 0 in | - | - | - |
| 1788122563 | 71° F | 95% | 757.2 mmHg | 0 in | - | - | - |
| 1788120763 | 71° F | 95% | 757.2 mmHg | 0 in | - | - | - |
| 1788118963 | 71° F | 95% | 757.2 mmHg | 0 in | - | - | - |
| 1788117163 | 71° F | 96% | 757.1 mmHg | 0 in | - | - | - |
* Rain latest hour (hover to see other rain measurements)
** Current wind speed in m/s (hover to see current wind gust speed)